sensor_id;sensor_type;location;lat;lon;timestamp;temperature;humidity
6810;DHT22;3443;48.812;9.112;2023-03-13T00:01:55;6.40;99.90
6810;DHT22;3443;48.812;9.112;2023-03-13T00:04:21;6.40;99.90
6810;DHT22;3443;48.812;9.112;2023-03-13T00:06:47;6.40;99.90
6810;DHT22;3443;48.812;9.112;2023-03-13T00:09:14;6.50;99.90
6810;DHT22;3443;48.812;9.112;2023-03-13T00:11:40;6.50;99.90
6810;DHT22;3443;48.812;9.112;2023-03-13T00:14:06;6.50;99.90
6810;DHT22;3443;48.812;9.112;2023-03-13T00:16:32;6.50;99.90
6810;DHT22;3443;48.812;9.112;2023-03-13T00:19:02;6.50;99.90
6810;DHT22;3443;48.812;9.112;2023-03-13T00:21:29;6.50;99.90
6810;DHT22;3443;48.812;9.112;2023-03-13T00:23:56;6.50;99.90
6810;DHT22;3443;48.812;9.112;2023-03-13T00:26:24;6.50;99.90
6810;DHT22;3443;48.812;9.112;2023-03-13T00:28:51;6.50;99.90
6810;DHT22;3443;48.812;9.112;2023-03-13T00:31:22;6.50;99.90
6810;DHT22;3443;48.812;9.112;2023-03-13T00:33:50;6.50;99.90
6810;DHT22;3443;48.812;9.112;2023-03-13T00:36:22;6.60;99.90
6810;DHT22;3443;48.812;9.112;2023-03-13T00:38:48;6.60;99.90
6810;DHT22;3443;48.812;9.112;2023-03-13T00:41:19;6.70;99.90
6810;DHT22;3443;48.812;9.112;2023-03-13T00:43:46;6.80;99.90
6810;DHT22;3443;48.812;9.112;2023-03-13T00:46:14;6.90;99.90
6810;DHT22;3443;48.812;9.112;2023-03-13T00:48:40;7.00;99.90
6810;DHT22;3443;48.812;9.112;2023-03-13T00:51:06;7.10;99.90
6810;DHT22;3443;48.812;9.112;2023-03-13T00:53:32;7.20;99.90
6810;DHT22;3443;48.812;9.112;2023-03-13T00:56:01;7.30;99.90
6810;DHT22;3443;48.812;9.112;2023-03-13T00:58:30;7.30;99.90
6810;DHT22;3443;48.812;9.112;2023-03-13T01:00:56;7.40;99.90
6810;DHT22;3443;48.812;9.112;2023-03-13T01:03:23;7.50;99.90
6810;DHT22;3443;48.812;9.112;2023-03-13T01:05:59;7.50;99.90
6810;DHT22;3443;48.812;9.112;2023-03-13T01:08:25;7.50;99.90
6810;DHT22;3443;48.812;9.112;2023-03-13T01:11:04;7.50;99.90
6810;DHT22;3443;48.812;9.112;2023-03-13T01:13:30;7.60;99.90
6810;DHT22;3443;48.812;9.112;2023-03-13T01:16:05;7.60;99.90
6810;DHT22;3443;48.812;9.112;2023-03-13T01:18:32;7.60;99.90
6810;DHT22;3443;48.812;9.112;2023-03-13T01:20:58;7.60;99.90
6810;DHT22;3443;48.812;9.112;2023-03-13T01:23:24;7.60;99.90
6810;DHT22;3443;48.812;9.112;2023-03-13T01:25:49;7.60;99.90
6810;DHT22;3443;48.812;9.112;2023-03-13T01:28:15;7.60;99.90
6810;DHT22;3443;48.812;9.112;2023-03-13T01:30:40;7.60;99.90
6810;DHT22;3443;48.812;9.112;2023-03-13T01:33:06;7.70;99.90
6810;DHT22;3443;48.812;9.112;2023-03-13T01:35:32;7.70;99.90
6810;DHT22;3443;48.812;9.112;2023-03-13T01:37:57;7.70;99.90
6810;DHT22;3443;48.812;9.112;2023-03-13T01:40:23;7.70;99.90
6810;DHT22;3443;48.812;9.112;2023-03-13T01:42:50;7.70;99.90
6810;DHT22;3443;48.812;9.112;2023-03-13T01:48:21;7.70;99.90
6810;DHT22;3443;48.812;9.112;2023-03-13T01:50:48;7.60;99.90
6810;DHT22;3443;48.812;9.112;2023-03-13T01:53:14;7.60;99.90
6810;DHT22;3443;48.812;9.112;2023-03-13T01:55:40;7.60;99.90
6810;DHT22;3443;48.812;9.112;2023-03-13T01:58:06;7.60;99.90
6810;DHT22;3443;48.812;9.112;2023-03-13T02:00:34;7.60;99.90
6810;DHT22;3443;48.812;9.112;2023-03-13T02:03:08;7.70;99.90
6810;DHT22;3443;48.812;9.112;2023-03-13T02:05:35;7.70;99.90
6810;DHT22;3443;48.812;9.112;2023-03-13T02:10:29;7.70;99.90
6810;DHT22;3443;48.812;9.112;2023-03-13T02:12:55;7.70;99.90
6810;DHT22;3443;48.812;9.112;2023-03-13T02:15:23;7.70;99.90
6810;DHT22;3443;48.812;9.112;2023-03-13T02:17:50;7.70;99.90
6810;DHT22;3443;48.812;9.112;2023-03-13T02:20:18;7.70;99.90
6810;DHT22;3443;48.812;9.112;2023-03-13T02:27:50;7.60;99.90
6810;DHT22;3443;48.812;9.112;2023-03-13T02:30:17;7.60;99.90
6810;DHT22;3443;48.812;9.112;2023-03-13T02:32:43;7.70;99.90
6810;DHT22;3443;48.812;9.112;2023-03-13T02:35:12;7.70;99.90
6810;DHT22;3443;48.812;9.112;2023-03-13T02:37:41;7.70;99.90
6810;DHT22;3443;48.812;9.112;2023-03-13T02:40:11;7.80;99.90
6810;DHT22;3443;48.812;9.112;2023-03-13T02:42:41;7.80;99.90
6810;DHT22;3443;48.812;9.112;2023-03-13T02:45:08;8.00;99.90
6810;DHT22;3443;48.812;9.112;2023-03-13T02:47:33;8.00;99.90
6810;DHT22;3443;48.812;9.112;2023-03-13T02:49:59;8.10;99.90
6810;DHT22;3443;48.812;9.112;2023-03-13T02:52:34;8.20;99.90
6810;DHT22;3443;48.812;9.112;2023-03-13T02:55:25;8.30;99.90
6810;DHT22;3443;48.812;9.112;2023-03-13T02:57:51;8.50;99.90
6810;DHT22;3443;48.812;9.112;2023-03-13T03:00:17;8.50;99.90
6810;DHT22;3443;48.812;9.112;2023-03-13T03:02:44;8.70;99.90
6810;DHT22;3443;48.812;9.112;2023-03-13T03:05:11;8.90;99.90
6810;DHT22;3443;48.812;9.112;2023-03-13T03:07:36;8.90;99.90
6810;DHT22;3443;48.812;9.112;2023-03-13T03:10:03;9.00;99.90
6810;DHT22;3443;48.812;9.112;2023-03-13T03:12:28;9.10;99.90
6810;DHT22;3443;48.812;9.112;2023-03-13T03:14:54;9.20;99.90
6810;DHT22;3443;48.812;9.112;2023-03-13T03:17:19;9.20;99.90
6810;DHT22;3443;48.812;9.112;2023-03-13T03:19:45;9.30;99.90
6810;DHT22;3443;48.812;9.112;2023-03-13T03:22:11;9.30;99.90
6810;DHT22;3443;48.812;9.112;2023-03-13T03:24:36;9.30;99.90
6810;DHT22;3443;48.812;9.112;2023-03-13T03:27:02;9.30;99.90
6810;DHT22;3443;48.812;9.112;2023-03-13T03:29:27;9.30;99.90
6810;DHT22;3443;48.812;9.112;2023-03-13T03:31:53;9.20;99.90
6810;DHT22;3443;48.812;9.112;2023-03-13T03:34:19;9.20;99.90
6810;DHT22;3443;48.812;9.112;2023-03-13T03:36:45;9.20;99.90
6810;DHT22;3443;48.812;9.112;2023-03-13T03:39:10;9.30;99.90
6810;DHT22;3443;48.812;9.112;2023-03-13T03:41:36;9.30;99.90
6810;DHT22;3443;48.812;9.112;2023-03-13T03:44:02;9.30;99.90
6810;DHT22;3443;48.812;9.112;2023-03-13T03:46:28;9.30;99.90
6810;DHT22;3443;48.812;9.112;2023-03-13T03:48:53;9.40;99.90
6810;DHT22;3443;48.812;9.112;2023-03-13T03:51:19;9.40;99.90
6810;DHT22;3443;48.812;9.112;2023-03-13T03:53:45;9.40;99.90
6810;DHT22;3443;48.812;9.112;2023-03-13T03:56:10;9.50;99.90
6810;DHT22;3443;48.812;9.112;2023-03-13T03:58:36;9.60;99.90
6810;DHT22;3443;48.812;9.112;2023-03-13T04:01:02;9.60;99.90
6810;DHT22;3443;48.812;9.112;2023-03-13T04:03:28;9.60;99.90
6810;DHT22;3443;48.812;9.112;2023-03-13T04:05:54;9.70;99.90
6810;DHT22;3443;48.812;9.112;2023-03-13T04:08:21;9.70;99.90
6810;DHT22;3443;48.812;9.112;2023-03-13T04:10:46;9.90;99.90
6810;DHT22;3443;48.812;9.112;2023-03-13T04:13:12;9.90;99.90
6810;DHT22;3443;48.812;9.112;2023-03-13T04:15:39;10.00;99.90
6810;DHT22;3443;48.812;9.112;2023-03-13T04:18:05;10.10;99.90
6810;DHT22;3443;48.812;9.112;2023-03-13T04:20:31;10.30;99.90
6810;DHT22;3443;48.812;9.112;2023-03-13T04:22:56;10.30;99.90
6810;DHT22;3443;48.812;9.112;2023-03-13T04:25:22;10.40;99.90
6810;DHT22;3443;48.812;9.112;2023-03-13T04:27:48;10.50;99.90
6810;DHT22;3443;48.812;9.112;2023-03-13T04:30:13;10.60;99.90
6810;DHT22;3443;48.812;9.112;2023-03-13T04:32:39;10.60;99.90
6810;DHT22;3443;48.812;9.112;2023-03-13T04:35:05;10.60;99.90
6810;DHT22;3443;48.812;9.112;2023-03-13T04:37:31;10.60;99.90
6810;DHT22;3443;48.812;9.112;2023-03-13T04:39:57;10.70;99.90
6810;DHT22;3443;48.812;9.112;2023-03-13T04:42:22;10.70;99.90
6810;DHT22;3443;48.812;9.112;2023-03-13T04:44:48;10.70;99.90
6810;DHT22;3443;48.812;9.112;2023-03-13T04:47:13;10.70;99.90
6810;DHT22;3443;48.812;9.112;2023-03-13T04:49:39;10.80;99.90
6810;DHT22;3443;48.812;9.112;2023-03-13T04:52:05;10.80;99.90
6810;DHT22;3443;48.812;9.112;2023-03-13T04:54:30;10.80;99.90
6810;DHT22;3443;48.812;9.112;2023-03-13T04:56:56;10.80;99.90
6810;DHT22;3443;48.812;9.112;2023-03-13T04:59:21;10.80;99.90
6810;DHT22;3443;48.812;9.112;2023-03-13T05:01:47;10.80;99.90
6810;DHT22;3443;48.812;9.112;2023-03-13T05:04:12;10.80;99.90
6810;DHT22;3443;48.812;9.112;2023-03-13T05:06:38;10.80;99.90
6810;DHT22;3443;48.812;9.112;2023-03-13T05:09:04;10.80;99.90
6810;DHT22;3443;48.812;9.112;2023-03-13T05:11:30;10.80;99.90
6810;DHT22;3443;48.812;9.112;2023-03-13T05:13:55;10.90;99.90
6810;DHT22;3443;48.812;9.112;2023-03-13T05:16:21;10.90;99.90
6810;DHT22;3443;48.812;9.112;2023-03-13T05:18:46;10.90;99.90
6810;DHT22;3443;48.812;9.112;2023-03-13T05:21:12;10.90;99.90
6810;DHT22;3443;48.812;9.112;2023-03-13T05:23:38;11.10;99.90
6810;DHT22;3443;48.812;9.112;2023-03-13T05:26:04;10.90;99.90
6810;DHT22;3443;48.812;9.112;2023-03-13T05:28:30;10.80;99.90
6810;DHT22;3443;48.812;9.112;2023-03-13T05:30:55;10.80;99.90
6810;DHT22;3443;48.812;9.112;2023-03-13T05:33:21;10.90;99.90
6810;DHT22;3443;48.812;9.112;2023-03-13T05:35:47;10.90;99.90
6810;DHT22;3443;48.812;9.112;2023-03-13T05:38:12;10.90;99.90
6810;DHT22;3443;48.812;9.112;2023-03-13T05:40:38;11.00;99.90
6810;DHT22;3443;48.812;9.112;2023-03-13T05:43:04;10.90;99.90
6810;DHT22;3443;48.812;9.112;2023-03-13T05:45:30;11.00;99.90
6810;DHT22;3443;48.812;9.112;2023-03-13T05:47:56;11.00;99.90
6810;DHT22;3443;48.812;9.112;2023-03-13T05:50:23;11.00;99.90
6810;DHT22;3443;48.812;9.112;2023-03-13T05:52:49;11.00;99.90
6810;DHT22;3443;48.812;9.112;2023-03-13T05:55:15;11.00;99.90
6810;DHT22;3443;48.812;9.112;2023-03-13T05:57:47;11.00;99.90
6810;DHT22;3443;48.812;9.112;2023-03-13T06:00:14;11.00;99.90
6810;DHT22;3443;48.812;9.112;2023-03-13T06:02:41;11.00;99.90
6810;DHT22;3443;48.812;9.112;2023-03-13T06:05:07;11.00;99.90
6810;DHT22;3443;48.812;9.112;2023-03-13T06:07:33;11.00;99.90
6810;DHT22;3443;48.812;9.112;2023-03-13T06:09:58;11.00;99.90
6810;DHT22;3443;48.812;9.112;2023-03-13T06:12:24;11.00;99.90
6810;DHT22;3443;48.812;9.112;2023-03-13T06:14:49;11.10;99.90
6810;DHT22;3443;48.812;9.112;2023-03-13T06:17:15;11.10;99.90
6810;DHT22;3443;48.812;9.112;2023-03-13T06:19:41;11.10;99.90
6810;DHT22;3443;48.812;9.112;2023-03-13T06:22:06;11.10;99.90
6810;DHT22;3443;48.812;9.112;2023-03-13T06:24:32;11.20;99.90
6810;DHT22;3443;48.812;9.112;2023-03-13T06:26:57;11.20;99.90
6810;DHT22;3443;48.812;9.112;2023-03-13T06:29:23;11.30;99.90
6810;DHT22;3443;48.812;9.112;2023-03-13T06:31:49;11.30;99.90
6810;DHT22;3443;48.812;9.112;2023-03-13T06:34:16;11.30;99.90
6810;DHT22;3443;48.812;9.112;2023-03-13T06:36:41;11.30;99.90
6810;DHT22;3443;48.812;9.112;2023-03-13T06:39:08;11.40;99.90
6810;DHT22;3443;48.812;9.112;2023-03-13T06:41:34;11.40;99.90
6810;DHT22;3443;48.812;9.112;2023-03-13T06:43:59;11.40;99.90
6810;DHT22;3443;48.812;9.112;2023-03-13T06:46:25;11.60;99.90
6810;DHT22;3443;48.812;9.112;2023-03-13T06:48:51;11.40;99.90
6810;DHT22;3443;48.812;9.112;2023-03-13T06:51:19;11.40;99.90
6810;DHT22;3443;48.812;9.112;2023-03-13T06:53:46;11.40;99.90
6810;DHT22;3443;48.812;9.112;2023-03-13T06:56:12;11.40;99.90
6810;DHT22;3443;48.812;9.112;2023-03-13T06:58:38;11.40;99.90
6810;DHT22;3443;48.812;9.112;2023-03-13T07:01:11;11.40;99.90
6810;DHT22;3443;48.812;9.112;2023-03-13T07:03:38;11.40;99.90
6810;DHT22;3443;48.812;9.112;2023-03-13T07:06:04;11.40;99.90
6810;DHT22;3443;48.812;9.112;2023-03-13T07:08:31;11.40;99.90
6810;DHT22;3443;48.812;9.112;2023-03-13T07:10:59;11.50;99.90
6810;DHT22;3443;48.812;9.112;2023-03-13T07:13:25;11.50;99.90
6810;DHT22;3443;48.812;9.112;2023-03-13T07:15:51;11.50;99.90
6810;DHT22;3443;48.812;9.112;2023-03-13T07:18:18;11.50;99.90
6810;DHT22;3443;48.812;9.112;2023-03-13T07:20:43;11.50;99.90
6810;DHT22;3443;48.812;9.112;2023-03-13T07:23:09;11.50;99.90
6810;DHT22;3443;48.812;9.112;2023-03-13T07:25:35;11.50;99.90
6810;DHT22;3443;48.812;9.112;2023-03-13T07:28:00;11.50;99.90
6810;DHT22;3443;48.812;9.112;2023-03-13T07:30:27;11.50;99.90
6810;DHT22;3443;48.812;9.112;2023-03-13T07:32:52;11.50;99.90
6810;DHT22;3443;48.812;9.112;2023-03-13T07:35:18;11.50;99.90
6810;DHT22;3443;48.812;9.112;2023-03-13T07:37:43;11.60;99.90
6810;DHT22;3443;48.812;9.112;2023-03-13T07:40:10;11.60;99.90
6810;DHT22;3443;48.812;9.112;2023-03-13T07:42:38;11.60;99.90
6810;DHT22;3443;48.812;9.112;2023-03-13T07:45:04;11.60;99.90
6810;DHT22;3443;48.812;9.112;2023-03-13T07:47:29;11.60;99.90
6810;DHT22;3443;48.812;9.112;2023-03-13T07:49:55;11.70;99.90
6810;DHT22;3443;48.812;9.112;2023-03-13T07:52:21;11.70;99.90
6810;DHT22;3443;48.812;9.112;2023-03-13T07:54:47;11.80;99.90
6810;DHT22;3443;48.812;9.112;2023-03-13T07:57:12;11.80;99.90
6810;DHT22;3443;48.812;9.112;2023-03-13T07:59:38;11.80;99.90
6810;DHT22;3443;48.812;9.112;2023-03-13T08:02:04;11.90;99.90
6810;DHT22;3443;48.812;9.112;2023-03-13T08:04:29;12.00;99.90
6810;DHT22;3443;48.812;9.112;2023-03-13T08:06:55;12.10;99.90
6810;DHT22;3443;48.812;9.112;2023-03-13T08:09:21;12.20;99.90
6810;DHT22;3443;48.812;9.112;2023-03-13T08:11:46;12.20;99.90
6810;DHT22;3443;48.812;9.112;2023-03-13T08:14:13;12.30;99.90
6810;DHT22;3443;48.812;9.112;2023-03-13T08:16:39;12.30;99.90
6810;DHT22;3443;48.812;9.112;2023-03-13T08:19:04;12.50;99.90
6810;DHT22;3443;48.812;9.112;2023-03-13T08:21:35;12.80;99.90
6810;DHT22;3443;48.812;9.112;2023-03-13T08:24:04;12.70;99.90
6810;DHT22;3443;48.812;9.112;2023-03-13T08:26:31;12.90;99.90
6810;DHT22;3443;48.812;9.112;2023-03-13T08:29:00;13.00;99.90
6810;DHT22;3443;48.812;9.112;2023-03-13T08:31:28;13.10;99.90
6810;DHT22;3443;48.812;9.112;2023-03-13T08:33:54;13.10;99.90
6810;DHT22;3443;48.812;9.112;2023-03-13T08:36:31;13.20;99.90
6810;DHT22;3443;48.812;9.112;2023-03-13T08:38:59;13.20;99.90
6810;DHT22;3443;48.812;9.112;2023-03-13T08:41:27;13.30;99.90
6810;DHT22;3443;48.812;9.112;2023-03-13T08:43:54;13.30;99.90
6810;DHT22;3443;48.812;9.112;2023-03-13T08:46:20;13.30;99.90
6810;DHT22;3443;48.812;9.112;2023-03-13T08:48:52;13.30;99.90
6810;DHT22;3443;48.812;9.112;2023-03-13T08:51:19;13.30;99.90
6810;DHT22;3443;48.812;9.112;2023-03-13T08:53:45;13.30;99.90
6810;DHT22;3443;48.812;9.112;2023-03-13T08:56:13;13.30;99.90
6810;DHT22;3443;48.812;9.112;2023-03-13T08:58:39;13.40;99.90
6810;DHT22;3443;48.812;9.112;2023-03-13T09:01:13;13.40;99.90
6810;DHT22;3443;48.812;9.112;2023-03-13T09:03:39;13.40;99.90
6810;DHT22;3443;48.812;9.112;2023-03-13T09:06:06;13.40;99.90
6810;DHT22;3443;48.812;9.112;2023-03-13T09:08:32;13.50;99.90
6810;DHT22;3443;48.812;9.112;2023-03-13T09:11:02;13.50;99.90
6810;DHT22;3443;48.812;9.112;2023-03-13T09:13:29;13.50;99.90
6810;DHT22;3443;48.812;9.112;2023-03-13T09:16:03;13.60;99.90
6810;DHT22;3443;48.812;9.112;2023-03-13T09:18:30;13.60;99.90
6810;DHT22;3443;48.812;9.112;2023-03-13T09:20:55;13.60;99.90
6810;DHT22;3443;48.812;9.112;2023-03-13T09:23:22;13.60;99.90
6810;DHT22;3443;48.812;9.112;2023-03-13T09:25:50;13.70;99.90
6810;DHT22;3443;48.812;9.112;2023-03-13T09:28:16;13.70;99.90
6810;DHT22;3443;48.812;9.112;2023-03-13T09:30:42;13.90;99.90
6810;DHT22;3443;48.812;9.112;2023-03-13T09:33:07;13.90;99.90
6810;DHT22;3443;48.812;9.112;2023-03-13T09:35:33;14.00;99.90
6810;DHT22;3443;48.812;9.112;2023-03-13T09:37:58;14.10;99.90
6810;DHT22;3443;48.812;9.112;2023-03-13T09:40:25;14.00;99.90
6810;DHT22;3443;48.812;9.112;2023-03-13T09:42:54;14.10;99.90
6810;DHT22;3443;48.812;9.112;2023-03-13T09:47:58;14.20;99.90
6810;DHT22;3443;48.812;9.112;2023-03-13T09:50:32;14.20;99.90
6810;DHT22;3443;48.812;9.112;2023-03-13T09:53:10;14.40;99.90
6810;DHT22;3443;48.812;9.112;2023-03-13T09:55:37;14.60;99.90
6810;DHT22;3443;48.812;9.112;2023-03-13T09:58:30;14.90;99.90
6810;DHT22;3443;48.812;9.112;2023-03-13T10:01:05;15.10;99.90
6810;DHT22;3443;48.812;9.112;2023-03-13T10:03:39;15.00;99.90
6810;DHT22;3443;48.812;9.112;2023-03-13T10:06:17;15.00;99.90
6810;DHT22;3443;48.812;9.112;2023-03-13T10:08:43;14.90;99.90
6810;DHT22;3443;48.812;9.112;2023-03-13T10:11:26;14.90;99.90
6810;DHT22;3443;48.812;9.112;2023-03-13T10:14:12;14.80;99.90
6810;DHT22;3443;48.812;9.112;2023-03-13T10:16:46;14.80;99.90
6810;DHT22;3443;48.812;9.112;2023-03-13T10:19:18;15.10;99.90
6810;DHT22;3443;48.812;9.112;2023-03-13T10:21:49;15.40;99.90
6810;DHT22;3443;48.812;9.112;2023-03-13T10:24:30;15.40;99.90
6810;DHT22;3443;48.812;9.112;2023-03-13T10:26:58;15.50;99.90
6810;DHT22;3443;48.812;9.112;2023-03-13T11:27:57;17.60;99.90
6810;DHT22;3443;48.812;9.112;2023-03-13T11:42:08;17.50;99.90
6810;DHT22;3443;48.812;9.112;2023-03-13T11:44:51;17.40;99.90
6810;DHT22;3443;48.812;9.112;2023-03-13T11:53:14;17.80;99.90
6810;DHT22;3443;48.812;9.112;2023-03-13T11:56:05;17.80;99.90
6810;DHT22;3443;48.812;9.112;2023-03-13T12:01:17;17.60;99.90
6810;DHT22;3443;48.812;9.112;2023-03-13T12:06:43;17.90;99.90
6810;DHT22;3443;48.812;9.112;2023-03-13T12:09:17;18.10;99.90
6810;DHT22;3443;48.812;9.112;2023-03-13T12:12:00;18.20;99.90
6810;DHT22;3443;48.812;9.112;2023-03-13T12:14:35;18.20;99.90
6810;DHT22;3443;48.812;9.112;2023-03-13T12:17:05;18.20;99.90
6810;DHT22;3443;48.812;9.112;2023-03-13T12:19:50;18.20;99.90
6810;DHT22;3443;48.812;9.112;2023-03-13T12:22:25;18.40;99.90
6810;DHT22;3443;48.812;9.112;2023-03-13T12:27:45;18.00;99.90
6810;DHT22;3443;48.812;9.112;2023-03-13T12:30:36;18.10;99.90
6810;DHT22;3443;48.812;9.112;2023-03-13T12:33:37;18.30;99.90
6810;DHT22;3443;48.812;9.112;2023-03-13T12:36:12;18.40;99.90
6810;DHT22;3443;48.812;9.112;2023-03-13T12:41:30;18.80;99.90
6810;DHT22;3443;48.812;9.112;2023-03-13T12:43:57;18.60;99.90
6810;DHT22;3443;48.812;9.112;2023-03-13T12:46:33;18.50;99.90
6810;DHT22;3443;48.812;9.112;2023-03-13T12:49:03;18.50;99.90
6810;DHT22;3443;48.812;9.112;2023-03-13T12:54:19;18.80;99.90
6810;DHT22;3443;48.812;9.112;2023-03-13T13:02:26;19.10;99.90
6810;DHT22;3443;48.812;9.112;2023-03-13T13:04:53;19.10;99.90
6810;DHT22;3443;48.812;9.112;2023-03-13T13:07:26;19.30;99.90
6810;DHT22;3443;48.812;9.112;2023-03-13T13:12:34;19.40;99.90
6810;DHT22;3443;48.812;9.112;2023-03-13T13:18:12;19.60;99.90
6810;DHT22;3443;48.812;9.112;2023-03-13T13:20:43;19.70;99.90
6810;DHT22;3443;48.812;9.112;2023-03-13T13:23:22;19.60;99.90
6810;DHT22;3443;48.812;9.112;2023-03-13T13:25:48;19.50;99.90
6810;DHT22;3443;48.812;9.112;2023-03-13T13:30:40;19.50;99.90
6810;DHT22;3443;48.812;9.112;2023-03-13T13:36:24;19.50;99.90
6810;DHT22;3443;48.812;9.112;2023-03-13T13:38:30;19.50;99.90
6810;DHT22;3443;48.812;9.112;2023-03-13T13:41:21;19.40;99.90
6810;DHT22;3443;48.812;9.112;2023-03-13T13:43:49;19.40;99.90
6810;DHT22;3443;48.812;9.112;2023-03-13T13:46:34;19.40;99.90
6810;DHT22;3443;48.812;9.112;2023-03-13T13:54:02;19.40;99.90
6810;DHT22;3443;48.812;9.112;2023-03-13T13:56:33;19.50;99.90
6810;DHT22;3443;48.812;9.112;2023-03-13T14:10:25;19.50;99.90
6810;DHT22;3443;48.812;9.112;2023-03-13T14:13:01;19.70;99.90
6810;DHT22;3443;48.812;9.112;2023-03-13T14:15:32;19.60;99.90
6810;DHT22;3443;48.812;9.112;2023-03-13T14:18:08;19.50;99.90
6810;DHT22;3443;48.812;9.112;2023-03-13T14:20:38;19.60;99.90
6810;DHT22;3443;48.812;9.112;2023-03-13T14:23:09;19.50;99.90
6810;DHT22;3443;48.812;9.112;2023-03-13T14:25:47;19.50;99.90
6810;DHT22;3443;48.812;9.112;2023-03-13T14:28:27;19.70;99.90
6810;DHT22;3443;48.812;9.112;2023-03-13T14:30:55;19.70;99.90
6810;DHT22;3443;48.812;9.112;2023-03-13T14:33:22;20.10;99.90
6810;DHT22;3443;48.812;9.112;2023-03-13T14:35:48;20.20;99.90
6810;DHT22;3443;48.812;9.112;2023-03-13T14:38:21;20.30;99.90
6810;DHT22;3443;48.812;9.112;2023-03-13T14:40:49;20.30;99.90
6810;DHT22;3443;48.812;9.112;2023-03-13T14:43:35;20.30;99.90
6810;DHT22;3443;48.812;9.112;2023-03-13T14:46:19;20.40;99.90
6810;DHT22;3443;48.812;9.112;2023-03-13T14:48:47;20.50;99.90
6810;DHT22;3443;48.812;9.112;2023-03-13T14:51:22;20.50;99.90
6810;DHT22;3443;48.812;9.112;2023-03-13T14:54:00;20.60;99.90
6810;DHT22;3443;48.812;9.112;2023-03-13T14:56:39;20.60;99.90
6810;DHT22;3443;48.812;9.112;2023-03-13T14:59:17;20.60;99.90
6810;DHT22;3443;48.812;9.112;2023-03-13T15:01:44;20.60;99.90
6810;DHT22;3443;48.812;9.112;2023-03-13T15:04:11;20.50;99.90
6810;DHT22;3443;48.812;9.112;2023-03-13T15:06:36;20.60;99.90
6810;DHT22;3443;48.812;9.112;2023-03-13T15:09:21;20.60;99.90
6810;DHT22;3443;48.812;9.112;2023-03-13T15:11:56;20.60;99.90
6810;DHT22;3443;48.812;9.112;2023-03-13T15:14:49;20.60;99.90
6810;DHT22;3443;48.812;9.112;2023-03-13T15:20:04;20.50;99.90
6810;DHT22;3443;48.812;9.112;2023-03-13T15:22:36;20.40;99.90
6810;DHT22;3443;48.812;9.112;2023-03-13T15:25:12;20.30;99.90
6810;DHT22;3443;48.812;9.112;2023-03-13T15:27:39;20.30;99.90
6810;DHT22;3443;48.812;9.112;2023-03-13T15:30:05;20.30;99.90
6810;DHT22;3443;48.812;9.112;2023-03-13T15:32:37;20.30;99.90
6810;DHT22;3443;48.812;9.112;2023-03-13T15:35:29;20.30;99.90
6810;DHT22;3443;48.812;9.112;2023-03-13T15:38:00;20.20;99.90
6810;DHT22;3443;48.812;9.112;2023-03-13T15:40:27;20.20;99.90
6810;DHT22;3443;48.812;9.112;2023-03-13T15:42:54;20.10;99.90
6810;DHT22;3443;48.812;9.112;2023-03-13T15:45:20;20.10;99.90
6810;DHT22;3443;48.812;9.112;2023-03-13T15:47:46;20.20;99.90
6810;DHT22;3443;48.812;9.112;2023-03-13T15:50:16;20.20;99.90
6810;DHT22;3443;48.812;9.112;2023-03-13T15:52:41;20.10;99.90
6810;DHT22;3443;48.812;9.112;2023-03-13T15:55:09;20.00;99.90
6810;DHT22;3443;48.812;9.112;2023-03-13T15:57:42;19.80;99.90
6810;DHT22;3443;48.812;9.112;2023-03-13T16:00:21;19.80;99.90
6810;DHT22;3443;48.812;9.112;2023-03-13T16:02:47;19.80;99.90
6810;DHT22;3443;48.812;9.112;2023-03-13T16:05:13;19.80;99.90
6810;DHT22;3443;48.812;9.112;2023-03-13T16:07:38;19.90;99.90
6810;DHT22;3443;48.812;9.112;2023-03-13T16:10:16;20.00;99.90
6810;DHT22;3443;48.812;9.112;2023-03-13T16:12:42;20.00;99.90
6810;DHT22;3443;48.812;9.112;2023-03-13T16:15:08;19.90;99.90
6810;DHT22;3443;48.812;9.112;2023-03-13T16:17:35;19.90;99.90
6810;DHT22;3443;48.812;9.112;2023-03-13T16:20:01;19.90;99.90
6810;DHT22;3443;48.812;9.112;2023-03-13T16:22:26;19.90;99.90
6810;DHT22;3443;48.812;9.112;2023-03-13T16:24:52;19.80;99.90
6810;DHT22;3443;48.812;9.112;2023-03-13T16:27:18;19.70;99.90
6810;DHT22;3443;48.812;9.112;2023-03-13T16:29:45;19.60;99.90
6810;DHT22;3443;48.812;9.112;2023-03-13T16:32:15;19.40;99.90
6810;DHT22;3443;48.812;9.112;2023-03-13T16:34:42;19.30;99.90
6810;DHT22;3443;48.812;9.112;2023-03-13T16:37:14;19.20;99.90
6810;DHT22;3443;48.812;9.112;2023-03-13T16:39:40;19.20;99.90
6810;DHT22;3443;48.812;9.112;2023-03-13T16:42:07;19.20;99.90
6810;DHT22;3443;48.812;9.112;2023-03-13T16:44:32;19.00;99.90
6810;DHT22;3443;48.812;9.112;2023-03-13T16:46:58;19.00;99.90
6810;DHT22;3443;48.812;9.112;2023-03-13T16:49:23;18.90;99.90
6810;DHT22;3443;48.812;9.112;2023-03-13T16:51:49;18.70;99.90
6810;DHT22;3443;48.812;9.112;2023-03-13T16:54:14;18.70;99.90
6810;DHT22;3443;48.812;9.112;2023-03-13T16:56:41;18.60;99.90
6810;DHT22;3443;48.812;9.112;2023-03-13T16:59:15;18.60;99.90
6810;DHT22;3443;48.812;9.112;2023-03-13T17:01:42;18.60;99.90
6810;DHT22;3443;48.812;9.112;2023-03-13T17:04:08;18.50;99.90
6810;DHT22;3443;48.812;9.112;2023-03-13T17:06:39;18.40;99.90
6810;DHT22;3443;48.812;9.112;2023-03-13T17:09:11;18.30;99.90
6810;DHT22;3443;48.812;9.112;2023-03-13T17:11:38;18.30;99.90
6810;DHT22;3443;48.812;9.112;2023-03-13T17:14:03;18.30;99.90
6810;DHT22;3443;48.812;9.112;2023-03-13T17:16:34;18.20;99.90
6810;DHT22;3443;48.812;9.112;2023-03-13T17:19:00;18.10;99.90
6810;DHT22;3443;48.812;9.112;2023-03-13T17:21:28;18.00;99.90
6810;DHT22;3443;48.812;9.112;2023-03-13T17:23:54;17.80;99.90
6810;DHT22;3443;48.812;9.112;2023-03-13T17:26:26;17.80;99.90
6810;DHT22;3443;48.812;9.112;2023-03-13T17:28:54;17.60;99.90
6810;DHT22;3443;48.812;9.112;2023-03-13T17:31:21;17.50;99.90
6810;DHT22;3443;48.812;9.112;2023-03-13T17:33:47;17.50;99.90
6810;DHT22;3443;48.812;9.112;2023-03-13T17:36:26;17.50;99.90
6810;DHT22;3443;48.812;9.112;2023-03-13T17:38:57;17.50;99.90
6810;DHT22;3443;48.812;9.112;2023-03-13T17:41:26;17.20;99.90
6810;DHT22;3443;48.812;9.112;2023-03-13T17:43:52;17.20;99.90
6810;DHT22;3443;48.812;9.112;2023-03-13T17:48:45;17.00;99.90
6810;DHT22;3443;48.812;9.112;2023-03-13T17:51:36;17.00;99.90
6810;DHT22;3443;48.812;9.112;2023-03-13T17:54:03;16.90;99.90
6810;DHT22;3443;48.812;9.112;2023-03-13T17:56:37;16.80;99.90
6810;DHT22;3443;48.812;9.112;2023-03-13T17:59:05;16.80;99.90
6810;DHT22;3443;48.812;9.112;2023-03-13T18:01:34;16.80;99.90
6810;DHT22;3443;48.812;9.112;2023-03-13T18:04:01;16.80;99.90
6810;DHT22;3443;48.812;9.112;2023-03-13T18:06:40;16.80;99.90
6810;DHT22;3443;48.812;9.112;2023-03-13T18:09:15;16.70;99.90
6810;DHT22;3443;48.812;9.112;2023-03-13T18:11:41;16.70;99.90
6810;DHT22;3443;48.812;9.112;2023-03-13T18:14:07;16.70;99.90
6810;DHT22;3443;48.812;9.112;2023-03-13T18:16:41;16.70;99.90
6810;DHT22;3443;48.812;9.112;2023-03-13T18:19:14;16.70;99.90
6810;DHT22;3443;48.812;9.112;2023-03-13T18:21:44;16.60;99.90
6810;DHT22;3443;48.812;9.112;2023-03-13T18:24:10;16.60;99.90
6810;DHT22;3443;48.812;9.112;2023-03-13T18:26:38;16.70;99.90
6810;DHT22;3443;48.812;9.112;2023-03-13T18:29:14;16.60;99.90
6810;DHT22;3443;48.812;9.112;2023-03-13T18:31:39;16.80;99.90
6810;DHT22;3443;48.812;9.112;2023-03-13T18:34:09;16.70;99.90
6810;DHT22;3443;48.812;9.112;2023-03-13T18:36:34;16.20;99.90